createdAt,value
2022-09-02T00:01:27.257Z,98678.63
2022-09-02T00:04:02.835Z,98675.88
2022-09-02T00:06:31.104Z,98676.66
2022-09-02T00:08:59.184Z,98673.59
2022-09-02T00:11:29.234Z,98667.50
2022-09-02T00:13:56.574Z,98662.78
2022-09-02T00:16:24.322Z,98641.31
2022-09-02T00:18:52.028Z,98674.81
2022-09-02T00:21:20.152Z,98671.13
2022-09-02T00:23:47.303Z,98671.25
2022-09-02T00:26:14.502Z,98592.97
2022-09-02T00:28:46.278Z,98653.13
2022-09-02T00:31:19.229Z,98665.72
2022-09-02T00:33:46.078Z,98610.31
2022-09-02T00:36:13.401Z,98640.78
2022-09-02T00:38:40.034Z,98576.34
2022-09-02T00:41:10.262Z,98657.78
2022-09-02T00:43:50.674Z,98658.53
2022-09-02T00:46:20.032Z,98642.75
2022-09-02T00:48:53.667Z,98621.47
2022-09-02T00:51:21.580Z,98654.28
2022-09-02T00:53:49.828Z,98615.13
2022-09-02T00:56:24.008Z,98637.09
2022-09-02T00:58:52.155Z,98668.13
2022-09-02T01:01:19.749Z,98665.97
2022-09-02T01:03:46.682Z,98611.22
2022-09-02T01:06:13.680Z,98604.88
2022-09-02T01:08:43.374Z,98651.13
2022-09-02T01:11:11.609Z,98654.13
2022-09-02T01:13:41.935Z,98611.13
2022-09-02T01:16:16.677Z,98595.16
2022-09-02T01:18:50.193Z,98637.38
2022-09-02T01:21:17.133Z,98644.75
2022-09-02T01:23:43.812Z,98593.03
2022-09-02T01:26:10.618Z,98639.69
2022-09-02T01:28:38.980Z,98648.38
2022-09-02T01:31:06.049Z,98644.97
2022-09-02T01:33:33.854Z,98644.19
2022-09-02T01:36:05.143Z,98569.06
2022-09-02T01:38:32.694Z,98601.13
2022-09-02T01:40:59.598Z,98589.72
2022-09-02T01:43:28.236Z,98576.00
2022-09-02T01:45:57.667Z,98611.00
2022-09-02T01:48:27.294Z,98639.63
2022-09-02T01:51:01.348Z,98596.47
2022-09-02T01:53:29.617Z,98532.41
2022-09-02T01:55:57.767Z,98572.31
2022-09-02T01:58:24.772Z,98601.00
2022-09-02T02:00:51.751Z,98620.13
2022-09-02T02:03:18.886Z,98583.38
2022-09-02T02:05:45.779Z,98572.94
2022-09-02T02:08:16.043Z,98591.56
2022-09-02T02:10:43.790Z,98634.59
2022-09-02T02:13:12.519Z,98615.19
2022-09-02T02:15:42.089Z,98563.09
2022-09-02T02:18:11.013Z,98584.59
2022-09-02T02:20:38.224Z,98519.69
2022-09-02T02:23:06.348Z,98565.66
2022-09-02T02:25:33.114Z,98566.84
2022-09-02T02:27:59.854Z,98560.53
2022-09-02T02:30:30.605Z,98589.41
2022-09-02T02:32:58.097Z,98581.81
2022-09-02T02:35:25.680Z,98531.69
2022-09-02T02:37:53.686Z,98573.19
2022-09-02T02:40:23.083Z,98614.28
2022-09-02T02:42:51.208Z,98610.00
2022-09-02T02:45:18.087Z,98561.53
2022-09-02T02:47:45.050Z,98545.59
2022-09-02T02:50:14.037Z,98619.97
2022-09-02T02:52:41.168Z,98612.84
2022-09-02T02:55:09.539Z,98574.94
2022-09-02T02:57:37.839Z,98614.88
2022-09-02T03:00:12.671Z,98555.56
2022-09-02T03:02:39.703Z,98597.09
2022-09-02T03:05:08.778Z,98598.75
2022-09-02T03:07:35.732Z,98567.91
2022-09-02T03:10:06.863Z,98591.22
2022-09-02T03:12:34.266Z,98559.41
2022-09-02T03:15:01.267Z,98558.50
2022-09-02T03:17:29.749Z,98593.97
2022-09-02T03:19:56.723Z,98522.16
2022-09-02T03:22:23.566Z,98523.81
2022-09-02T03:24:50.681Z,98616.25
2022-09-02T03:27:17.377Z,98545.94
2022-09-02T03:29:43.950Z,98552.94
2022-09-02T03:32:11.361Z,98538.00
2022-09-02T03:34:41.741Z,98566.25
2022-09-02T03:37:08.769Z,98539.59
2022-09-02T03:39:37.383Z,98520.00
2022-09-02T03:42:05.693Z,98546.75
2022-09-02T03:44:32.881Z,98556.44
2022-09-02T03:47:00.670Z,98540.16
2022-09-02T03:49:27.303Z,98535.25
2022-09-02T03:51:54.363Z,98605.94
2022-09-02T03:54:21.043Z,98544.38
2022-09-02T03:56:47.753Z,98555.41
2022-09-02T03:59:15.454Z,98502.06
2022-09-02T04:01:42.673Z,98609.44
2022-09-02T04:04:09.659Z,98563.88
2022-09-02T04:06:38.895Z,98521.03
2022-09-02T04:09:06.565Z,98590.28
2022-09-02T04:11:34.490Z,98606.06
2022-09-02T04:14:01.124Z,98551.50
2022-09-02T04:16:29.431Z,98512.50
2022-09-02T04:19:01.116Z,98531.53
2022-09-02T04:21:32.506Z,98564.84
2022-09-02T04:23:59.630Z,98596.19
2022-09-02T04:26:28.462Z,98541.91
2022-09-02T04:28:56.470Z,98594.06
2022-09-02T04:31:25.796Z,98543.22
2022-09-02T04:33:53.872Z,98525.59
2022-09-02T04:36:21.667Z,98527.66
2022-09-02T04:38:53.808Z,98529.66
2022-09-02T04:41:27.094Z,98561.31
2022-09-02T04:43:59.107Z,98505.47
2022-09-02T04:46:34.252Z,98569.13
2022-09-02T04:49:04.528Z,98542.03
2022-09-02T04:51:32.217Z,98532.84
2022-09-02T04:54:00.882Z,98585.44
2022-09-02T04:56:30.871Z,98560.97
2022-09-02T04:58:59.802Z,98535.00
2022-09-02T05:01:30.340Z,98408.44
2022-09-02T05:03:59.633Z,98533.53
2022-09-02T05:06:33.373Z,98570.97
2022-09-02T05:09:02.294Z,98534.53
2022-09-02T05:11:32.779Z,98551.28
2022-09-02T05:14:02.558Z,98528.19
2022-09-02T05:16:32.607Z,98535.69
2022-09-02T05:19:00.092Z,98593.97
2022-09-02T05:21:38.781Z,98587.28
2022-09-02T05:24:06.462Z,98529.47
2022-09-02T05:26:33.026Z,98565.25
2022-09-02T05:29:00.099Z,98583.22
2022-09-02T05:31:27.592Z,98514.19
2022-09-02T05:33:54.886Z,98594.94
2022-09-02T05:36:22.821Z,98543.00
2022-09-02T05:38:51.013Z,98554.41
2022-09-02T05:41:21.809Z,98514.19
2022-09-02T05:43:53.971Z,98522.06
2022-09-02T05:46:24.212Z,98591.84
2022-09-02T05:48:54.663Z,98537.88
2022-09-02T05:51:21.833Z,98518.84
2022-09-02T05:53:52.899Z,98566.88
2022-09-02T05:56:21.694Z,98596.44
2022-09-02T05:58:48.765Z,98597.63
2022-09-02T06:01:17.434Z,98545.00
2022-09-02T06:03:44.794Z,98595.53
2022-09-02T06:06:11.927Z,98597.53
2022-09-02T06:08:41.143Z,98592.09
2022-09-02T06:11:10.192Z,98553.59
2022-09-02T06:13:40.242Z,98600.31
2022-09-02T06:16:08.057Z,98575.47
2022-09-02T06:18:35.109Z,98589.59
2022-09-02T06:21:06.177Z,98538.75
2022-09-02T06:23:39.164Z,98516.97
2022-09-02T06:26:09.998Z,98591.59
2022-09-02T06:28:36.727Z,98519.31
2022-09-02T06:31:10.389Z,98591.22
2022-09-02T06:33:37.606Z,98559.97
2022-09-02T06:36:08.078Z,98591.03
2022-09-02T06:38:45.994Z,98573.09
2022-09-02T06:41:16.475Z,98589.84
2022-09-02T06:43:44.239Z,98556.16
2022-09-02T06:46:29.479Z,98583.88
2022-09-02T06:48:59.769Z,98520.59
2022-09-02T06:51:38.163Z,98531.13
2022-09-02T06:54:08.133Z,98547.84
2022-09-02T06:56:38.649Z,98524.53
2022-09-02T06:59:06.818Z,98516.75
2022-09-02T07:01:43.160Z,98563.44
2022-09-02T07:04:10.920Z,98543.19
2022-09-02T07:06:43.027Z,98577.31
2022-09-02T07:09:11.798Z,98583.06
2022-09-02T07:11:39.243Z,98512.28
2022-09-02T07:14:06.976Z,98589.78
2022-09-02T07:16:38.512Z,98588.28
2022-09-02T07:19:08.589Z,98529.97
2022-09-02T07:21:40.042Z,98534.03
2022-09-02T07:24:07.970Z,98585.50
2022-09-02T07:26:34.770Z,98533.34
2022-09-02T07:29:03.858Z,98521.56
2022-09-02T07:31:30.846Z,98573.25
2022-09-02T07:33:57.681Z,98522.53
2022-09-02T07:36:26.590Z,98528.97
2022-09-02T07:38:55.351Z,98550.44
2022-09-02T07:41:24.043Z,98579.56
2022-09-02T07:43:51.804Z,98522.63
2022-09-02T07:46:20.504Z,98574.66
2022-09-02T07:48:48.126Z,98525.84
2022-09-02T07:51:14.970Z,98573.97
2022-09-02T07:53:41.885Z,98533.34
2022-09-02T07:56:08.574Z,98443.97
2022-09-02T07:58:36.138Z,98532.81
2022-09-02T08:01:03.636Z,98553.44
2022-09-02T08:03:30.385Z,98545.81
2022-09-02T08:05:58.661Z,98544.50
2022-09-02T08:08:25.301Z,98507.81
2022-09-02T08:10:53.833Z,98549.53
2022-09-02T08:13:21.985Z,98569.38
2022-09-02T08:15:53.937Z,98560.31
2022-09-02T08:18:22.544Z,98537.34
2022-09-02T08:20:49.620Z,98573.69
2022-09-02T08:23:25.706Z,98530.28
2022-09-02T08:26:01.257Z,98570.91
2022-09-02T08:28:28.286Z,98534.88
2022-09-02T08:30:57.442Z,98507.63
2022-09-02T08:33:24.268Z,98531.94
2022-09-02T08:35:51.074Z,98522.59
2022-09-02T08:38:18.247Z,98542.41
2022-09-02T08:40:45.528Z,98533.84
2022-09-02T08:43:43.338Z,98563.34
2022-09-02T08:46:12.471Z,98532.53
2022-09-02T08:49:15.836Z,98529.44
2022-09-02T08:51:51.514Z,98564.81
2022-09-02T08:54:42.417Z,98551.72
2022-09-02T08:57:09.355Z,98424.22
2022-09-02T08:59:37.181Z,98492.53
2022-09-02T09:02:47.348Z,98542.50
2022-09-02T09:05:24.557Z,98510.31
2022-09-02T09:07:57.390Z,98539.63
2022-09-02T09:10:35.564Z,98537.25
2022-09-02T09:13:28.427Z,98540.50
2022-09-02T09:16:23.132Z,98538.78
2022-09-02T09:19:11.757Z,98532.84
2022-09-02T09:21:38.828Z,98487.53
2022-09-02T09:24:30.319Z,98519.97
2022-09-02T09:26:58.214Z,98483.19
2022-09-02T09:29:24.794Z,98465.75
2022-09-02T09:31:58.473Z,98502.25
2022-09-02T09:34:45.152Z,98461.13
2022-09-02T09:37:11.830Z,98484.88
2022-09-02T09:39:38.417Z,98443.91
2022-09-02T09:42:14.397Z,98464.19
2022-09-02T09:44:45.539Z,98494.97
2022-09-02T09:47:19.595Z,98499.16
2022-09-02T09:50:08.975Z,98499.34
2022-09-02T09:52:35.991Z,98460.97
2022-09-02T09:55:24.427Z,98470.75
2022-09-02T09:57:51.811Z,98435.84
2022-09-02T10:00:31.585Z,98437.34
2022-09-02T10:03:05.364Z,98465.78
2022-09-02T10:05:38.092Z,98410.31
2022-09-02T10:08:26.863Z,98481.19
2022-09-02T10:11:02.580Z,98425.13
2022-09-02T10:13:32.085Z,98444.78
2022-09-02T10:16:28.236Z,98475.91
2022-09-02T10:18:58.205Z,98402.94
2022-09-02T10:21:49.665Z,98472.09
2022-09-02T10:24:53.753Z,98463.75
2022-09-02T10:27:40.845Z,98408.84
2022-09-02T10:30:16.493Z,98419.00
2022-09-02T10:33:21.011Z,98461.75
2022-09-02T10:36:20.815Z,98448.06
2022-09-02T10:38:50.162Z,98407.06
2022-09-02T10:41:40.308Z,98446.47
2022-09-02T10:44:33.018Z,98385.38
2022-09-02T10:47:03.365Z,98419.91
2022-09-02T10:49:48.132Z,98442.44
2022-09-02T10:52:33.706Z,98439.88
2022-09-02T10:55:14.137Z,98415.81
2022-09-02T10:58:04.026Z,98425.91
2022-09-02T11:00:33.928Z,98433.47
2022-09-02T11:03:24.052Z,98420.69
2022-09-02T11:05:54.536Z,98401.94
2022-09-02T11:08:57.479Z,98402.38
2022-09-02T11:12:15.499Z,98408.94
2022-09-02T11:14:56.635Z,98432.44
2022-09-02T11:17:43.787Z,98412.69
2022-09-02T11:20:29.174Z,98426.38
2022-09-02T11:23:06.710Z,98417.53
2022-09-02T11:25:55.277Z,98411.72
2022-09-02T11:28:52.690Z,98415.97
2022-09-02T11:31:27.431Z,98383.34
2022-09-02T11:36:33.492Z,98343.78
2022-09-02T11:39:03.633Z,98383.19
2022-09-02T11:42:02.438Z,98406.66
2022-09-02T11:44:52.877Z,98400.59
2022-09-02T11:47:25.689Z,98396.38
2022-09-02T11:50:30.770Z,98394.50
2022-09-02T11:55:46.368Z,98326.94
2022-09-02T11:58:32.127Z,98323.69
2022-09-02T12:01:25.194Z,98343.22
2022-09-02T12:04:40.066Z,98360.84
2022-09-02T12:07:07.316Z,98385.09
2022-09-02T12:12:37.651Z,98387.88
2022-09-02T12:15:04.398Z,98387.97
2022-09-02T12:17:49.238Z,98378.78
2022-09-02T12:20:36.166Z,98377.22
2022-09-02T12:23:03.544Z,98307.66
2022-09-02T12:25:30.034Z,98373.88
2022-09-02T12:28:30.606Z,98359.47
2022-09-02T12:30:57.361Z,98355.50
2022-09-02T12:33:39.094Z,98346.91
2022-09-02T12:36:08.328Z,98321.31
2022-09-02T12:38:41.871Z,98262.28
2022-09-02T12:41:21.159Z,98299.47
2022-09-02T12:44:25.866Z,98355.16
2022-09-02T12:47:00.519Z,98295.38
2022-09-02T12:49:48.857Z,98332.91
2022-09-02T12:52:34.336Z,98321.31
2022-09-02T12:55:10.011Z,98320.59
2022-09-02T12:57:39.947Z,98332.63
2022-09-02T13:00:07.158Z,98264.97
2022-09-02T13:02:51.527Z,98269.09
2022-09-02T13:05:30.983Z,98305.84
2022-09-02T13:08:19.512Z,98315.16
2022-09-02T13:11:08.021Z,98315.91
2022-09-02T13:13:49.224Z,98250.31
2022-09-02T13:16:43.807Z,98135.59
2022-09-02T13:19:35.522Z,98300.78
2022-09-02T13:22:14.232Z,98307.56
2022-09-02T13:24:47.057Z,98300.94
2022-09-02T13:27:31.890Z,98308.59
2022-09-02T13:30:04.670Z,98303.63
2022-09-02T13:32:33.001Z,98225.03
2022-09-02T13:35:05.238Z,98272.53
2022-09-02T13:37:41.312Z,98299.69
2022-09-02T13:40:24.159Z,98243.34
2022-09-02T13:43:02.610Z,98237.97
2022-09-02T13:45:33.106Z,98259.97
2022-09-02T13:48:02.840Z,98292.31
2022-09-02T13:50:31.821Z,98236.22
2022-09-02T13:55:53.818Z,98284.81
2022-09-02T13:58:45.354Z,98293.75
2022-09-02T14:01:30.736Z,98253.78
2022-09-02T14:04:00.552Z,98287.94
2022-09-02T14:06:34.233Z,98299.00
2022-09-02T14:09:04.222Z,98227.25
2022-09-02T14:11:42.350Z,98271.72
2022-09-02T14:14:14.607Z,98237.22
2022-09-02T14:16:41.186Z,98234.94
2022-09-02T14:19:23.464Z,98231.28
2022-09-02T14:21:56.217Z,98251.06
2022-09-02T14:24:29.575Z,98276.56
2022-09-02T14:26:58.257Z,98286.44
2022-09-02T14:29:26.510Z,98266.53
2022-09-02T14:32:21.226Z,98231.16
2022-09-02T14:34:48.896Z,98225.78
2022-09-02T14:37:22.919Z,98257.31
2022-09-02T14:40:01.805Z,98278.09
2022-09-02T14:42:29.579Z,98260.97
2022-09-02T14:44:56.921Z,98275.66
2022-09-02T14:47:23.956Z,98215.53
2022-09-02T14:49:55.390Z,98258.59
2022-09-02T14:52:28.471Z,98255.94
2022-09-02T14:54:57.484Z,98262.97
2022-09-02T14:57:35.386Z,98244.63
2022-09-02T15:00:06.777Z,98225.75
2022-09-02T15:02:35.040Z,98170.59
2022-09-02T15:05:06.738Z,98256.16
2022-09-02T15:07:34.531Z,98216.41
2022-09-02T15:10:01.153Z,98188.22
2022-09-02T15:12:30.423Z,98178.94
2022-09-02T15:14:57.887Z,98169.31
2022-09-02T15:17:25.246Z,98201.16
2022-09-02T15:19:51.986Z,98220.81
2022-09-02T15:22:19.704Z,98187.22
2022-09-02T15:24:46.378Z,98223.59
2022-09-02T15:27:13.729Z,98235.72
2022-09-02T15:29:40.542Z,98171.28
2022-09-02T15:32:07.491Z,98194.66
2022-09-02T15:34:34.268Z,98193.06
2022-09-02T15:37:02.616Z,98193.94
2022-09-02T15:39:29.521Z,98156.25
2022-09-02T15:41:56.441Z,98104.78
2022-09-02T15:44:24.134Z,98165.91
2022-09-02T15:46:50.742Z,98219.34
2022-09-02T15:49:24.626Z,98221.22
2022-09-02T15:51:54.914Z,98197.72
2022-09-02T15:54:31.402Z,98236.47
2022-09-02T15:56:59.826Z,98233.97
2022-09-02T15:59:29.466Z,98230.06
2022-09-02T16:02:03.177Z,98201.00
2022-09-02T16:04:30.475Z,98209.72
2022-09-02T16:07:00.678Z,98159.00
2022-09-02T16:09:32.553Z,98164.56
2022-09-02T16:12:00.951Z,98160.91
2022-09-02T16:14:31.168Z,98137.16
2022-09-02T16:17:01.530Z,98221.25
2022-09-02T16:19:35.416Z,98179.81
2022-09-02T16:22:02.420Z,98185.34
2022-09-02T16:24:29.050Z,98165.63
2022-09-02T16:26:57.185Z,98190.88
2022-09-02T16:29:24.672Z,98208.16
2022-09-02T16:32:02.157Z,98136.19
2022-09-02T16:34:37.966Z,98171.00
2022-09-02T16:37:04.527Z,98153.66
2022-09-02T16:39:31.290Z,98155.81
2022-09-02T16:41:57.950Z,98152.78
2022-09-02T16:44:25.589Z,98196.34
2022-09-02T16:46:55.949Z,98182.91
2022-09-02T16:49:24.997Z,98131.94
2022-09-02T16:51:58.152Z,98130.88
2022-09-02T16:54:31.637Z,98190.22
2022-09-02T16:57:01.677Z,98185.09
2022-09-02T16:59:28.717Z,98193.84
2022-09-02T17:01:56.067Z,98145.72
2022-09-02T17:04:23.542Z,98131.84
2022-09-02T17:06:50.509Z,98131.78
2022-09-02T17:09:20.152Z,98193.13
2022-09-02T17:11:48.541Z,98130.97
2022-09-02T17:14:17.710Z,98033.13
2022-09-02T17:16:50.923Z,98191.25
2022-09-02T17:19:20.086Z,98155.31
2022-09-02T17:21:52.153Z,98175.28
2022-09-02T17:24:22.767Z,98145.91
2022-09-02T17:26:51.376Z,98143.84
2022-09-02T17:29:47.557Z,98166.00
2022-09-02T17:32:08.154Z,98175.66
2022-09-02T17:34:36.319Z,98188.94
2022-09-02T17:37:04.263Z,98142.28
2022-09-02T17:39:32.539Z,98139.72
2022-09-02T17:42:06.815Z,98202.38
2022-09-02T17:44:38.796Z,98119.13
2022-09-02T17:47:15.448Z,98172.41
2022-09-02T17:49:42.701Z,98201.38
2022-09-02T17:52:09.297Z,98164.94
2022-09-02T17:54:37.555Z,98213.88
2022-09-02T17:57:32.990Z,98207.78
2022-09-02T18:00:29.209Z,98167.94
2022-09-02T18:03:04.355Z,98195.03
2022-09-02T18:05:41.533Z,98213.41
2022-09-02T18:08:33.671Z,98114.22
2022-09-02T18:11:02.354Z,98155.97
2022-09-02T18:13:48.642Z,98151.19
2022-09-02T18:16:49.450Z,98162.66
2022-09-02T18:19:42.504Z,98225.03
2022-09-02T18:22:31.145Z,98235.09
2022-09-02T18:25:14.407Z,98239.56
2022-09-02T18:27:55.342Z,98191.25
2022-09-02T18:30:40.582Z,98249.03
2022-09-02T18:33:16.633Z,98246.75
2022-09-02T18:35:48.510Z,98239.88
2022-09-02T18:38:40.137Z,98250.22
2022-09-02T18:41:31.915Z,98110.91
2022-09-02T18:44:13.980Z,98250.47
2022-09-02T18:46:54.117Z,98241.06
2022-09-02T18:49:23.906Z,98259.84
2022-09-02T18:51:55.884Z,98211.84
2022-09-02T18:54:26.859Z,98210.91
2022-09-02T18:56:58.575Z,98244.28
2022-09-02T18:59:38.221Z,98270.06
2022-09-02T19:02:31.089Z,98273.50
2022-09-02T19:04:59.235Z,98224.06
2022-09-02T19:07:28.595Z,98274.56
2022-09-02T19:09:55.715Z,98241.22
2022-09-02T19:12:22.559Z,98222.91
2022-09-02T19:14:49.176Z,98175.28
2022-09-02T19:17:15.709Z,98231.63
2022-09-02T19:19:42.385Z,98215.50
2022-09-02T19:22:10.924Z,98204.03
2022-09-02T19:24:46.301Z,98237.59
2022-09-02T19:27:17.215Z,98291.16
2022-09-02T19:29:47.710Z,98252.31
2022-09-02T19:32:14.920Z,98240.63
2022-09-02T19:34:43.988Z,98237.69
2022-09-02T19:37:13.327Z,98257.03
2022-09-02T19:39:40.094Z,98280.47
2022-09-02T19:42:06.846Z,98214.09
2022-09-02T19:44:33.470Z,98230.78
2022-09-02T19:49:47.132Z,98236.31
2022-09-02T19:52:13.662Z,98271.03
2022-09-02T19:54:41.574Z,98226.91
2022-09-02T19:57:08.187Z,98312.53
2022-09-02T19:59:34.897Z,98225.28
2022-09-02T20:02:01.492Z,98254.44
2022-09-02T20:04:30.032Z,98251.84
2022-09-02T20:06:57.147Z,98247.22
2022-09-02T20:09:23.843Z,98262.19
2022-09-02T20:11:50.458Z,98268.88
2022-09-02T20:14:17.199Z,98243.63
2022-09-02T20:16:43.846Z,98279.47
2022-09-02T20:19:13.695Z,98238.25
2022-09-02T20:21:45.603Z,98301.56
2022-09-02T20:24:20.598Z,98254.75
2022-09-02T20:27:05.563Z,98302.78
2022-09-02T20:29:38.476Z,98301.16
2022-09-02T20:32:42.316Z,98306.50
2022-09-02T20:35:37.422Z,98287.56
2022-09-02T20:38:17.255Z,98217.50
2022-09-02T20:41:11.643Z,98239.75
2022-09-02T20:43:41.438Z,98294.91
2022-09-02T20:46:29.526Z,98258.41
2022-09-02T20:49:01.945Z,98230.63
2022-09-02T20:52:08.205Z,98242.72
2022-09-02T20:54:50.995Z,98300.75
2022-09-02T20:57:40.910Z,98279.88
2022-09-02T21:00:10.711Z,98222.97
2022-09-02T21:02:59.293Z,98285.91
2022-09-02T21:05:31.251Z,98291.16
2022-09-02T21:08:08.458Z,98282.97
2022-09-02T21:10:42.650Z,98197.41
2022-09-02T21:13:19.198Z,98284.16
2022-09-02T21:15:58.283Z,98211.16
2022-09-02T21:18:40.348Z,98224.09
2022-09-02T21:21:21.768Z,98282.66
2022-09-02T21:24:15.769Z,98275.75
2022-09-02T21:26:56.603Z,98288.44
2022-09-02T21:29:39.933Z,98238.16
2022-09-02T21:32:15.429Z,98215.34
2022-09-02T21:34:54.111Z,98240.06
2022-09-02T21:37:23.120Z,98210.72
2022-09-02T21:39:59.328Z,98243.88
2022-09-02T21:42:39.664Z,98207.31
2022-09-02T21:45:36.245Z,98231.19
2022-09-02T21:48:09.022Z,98282.44
2022-09-02T21:50:50.157Z,98265.97
2022-09-02T21:53:30.363Z,98234.50
2022-09-02T21:56:00.026Z,98281.34
2022-09-02T21:58:45.637Z,98257.09
2022-09-02T22:01:43.991Z,98184.06
2022-09-02T22:04:24.914Z,98253.09
2022-09-02T22:07:00.450Z,98230.81
2022-09-02T22:09:30.032Z,98271.44
2022-09-02T22:12:11.299Z,98166.50
2022-09-02T22:14:45.511Z,98206.72
2022-09-02T22:17:34.122Z,98200.06
2022-09-02T22:20:02.524Z,98246.31
2022-09-02T22:22:34.632Z,98264.00
2022-09-02T22:25:01.402Z,98245.72
2022-09-02T22:27:33.673Z,98280.31
2022-09-02T22:30:15.753Z,98230.06
2022-09-02T22:32:52.678Z,98238.84
2022-09-02T22:35:22.488Z,98279.72
2022-09-02T22:37:57.555Z,98213.44
2022-09-02T22:40:27.861Z,98214.03
2022-09-02T22:43:00.922Z,98240.75
2022-09-02T22:45:35.487Z,98218.38
2022-09-02T22:48:21.495Z,98216.69
2022-09-02T22:50:53.591Z,98270.38
2022-09-02T22:53:22.334Z,98214.88
2022-09-02T22:55:51.885Z,98276.25
2022-09-02T22:58:21.721Z,98271.69
2022-09-02T23:01:02.424Z,98200.44
2022-09-02T23:04:05.265Z,98258.25
2022-09-02T23:06:32.931Z,98273.72
2022-09-02T23:09:00.602Z,98193.41
2022-09-02T23:11:57.855Z,98270.28
2022-09-02T23:14:32.939Z,98230.63
2022-09-02T23:17:30.203Z,98249.59
2022-09-02T23:20:06.955Z,98251.13
2022-09-02T23:22:57.731Z,98239.22
2022-09-02T23:25:44.628Z,98256.13
2022-09-02T23:28:15.724Z,98253.94
2022-09-02T23:30:49.066Z,98255.69
2022-09-02T23:33:29.221Z,98186.69
2022-09-02T23:36:48.360Z,98247.88
2022-09-02T23:39:42.495Z,98183.88
2022-09-02T23:42:10.590Z,98120.00
2022-09-02T23:44:37.222Z,98220.31
2022-09-02T23:47:40.541Z,98234.09
2022-09-02T23:50:58.192Z,98236.81
2022-09-02T23:53:33.802Z,98203.13
2022-09-02T23:56:18.389Z,98236.47
2022-09-02T23:59:09.974Z,98227.16
